createdAt,value
2024-02-06T00:02:03.677Z,51.38
2024-02-06T00:04:34.713Z,50.78
2024-02-06T00:07:17.087Z,54.83
2024-02-06T00:09:53.446Z,55.20
2024-02-06T00:12:23.343Z,51.83
2024-02-06T00:14:56.504Z,49.20
2024-02-06T00:17:26.565Z,49.72
2024-02-06T00:19:56.761Z,50.33
2024-02-06T00:22:26.792Z,50.58
2024-02-06T00:24:56.816Z,47.63
2024-02-06T00:27:27.026Z,46.05
2024-02-06T00:29:59.536Z,42.55
2024-02-06T00:32:29.570Z,46.75
2024-02-06T00:35:01.586Z,59.75
2024-02-06T00:37:34.331Z,46.63
2024-02-06T00:40:06.183Z,51.63
2024-02-06T00:42:36.166Z,43.20
2024-02-06T00:45:10.007Z,47.92
2024-02-06T00:50:13.108Z,52.47
2024-02-06T00:52:43.621Z,44.65
2024-02-06T00:55:13.980Z,42.05
2024-02-06T00:57:43.936Z,47.85
2024-02-06T01:00:30.150Z,41.95
2024-02-06T01:03:00.601Z,45.10
2024-02-06T01:05:32.409Z,45.83
2024-02-06T01:08:04.642Z,44.45
2024-02-06T01:10:36.977Z,53.20
2024-02-06T01:13:08.160Z,46.13
2024-02-06T01:15:41.246Z,38.90
2024-02-06T01:18:11.205Z,48.80
2024-02-06T01:20:41.619Z,39.03
2024-02-06T01:23:11.534Z,45.35
2024-02-06T01:25:41.662Z,51.25
2024-02-06T01:28:13.630Z,40.20
2024-02-06T01:30:46.190Z,43.15
2024-02-06T01:33:17.702Z,42.38
2024-02-06T01:35:48.670Z,46.40
2024-02-06T01:38:19.095Z,43.28
2024-02-06T01:40:50.384Z,44.00
2024-02-06T01:43:20.339Z,43.03
2024-02-06T01:45:54.291Z,45.85
2024-02-06T01:48:25.928Z,62.00
2024-02-06T01:50:57.168Z,43.55
2024-02-06T01:53:27.929Z,54.35
2024-02-06T01:55:58.703Z,48.78
2024-02-06T01:58:29.105Z,42.33
2024-02-06T02:01:02.606Z,46.08
2024-02-06T02:03:35.982Z,41.97
2024-02-06T02:06:07.560Z,45.58
2024-02-06T02:08:38.380Z,38.40
2024-02-06T02:11:09.822Z,45.35
2024-02-06T02:13:39.811Z,42.67
2024-02-06T02:16:13.449Z,44.65
2024-02-06T02:18:44.373Z,51.60
2024-02-06T02:21:17.855Z,46.10
2024-02-06T02:23:49.340Z,48.55
2024-02-06T02:26:19.649Z,54.78
2024-02-06T02:28:50.778Z,47.45
2024-02-06T02:31:22.117Z,54.92
2024-02-06T02:33:53.672Z,49.05
2024-02-06T02:36:26.331Z,52.88
2024-02-06T02:38:56.218Z,48.85
2024-02-06T02:41:26.062Z,60.20
2024-02-06T02:43:56.601Z,47.75
2024-02-06T02:46:29.374Z,49.45
2024-02-06T02:49:04.301Z,49.50
2024-02-06T02:51:37.204Z,49.30
2024-02-06T02:54:07.344Z,55.05
2024-02-06T02:56:37.368Z,44.35
2024-02-06T02:59:07.612Z,56.70
2024-02-06T03:01:37.809Z,46.05
2024-02-06T03:04:09.115Z,46.17
2024-02-06T03:06:47.932Z,43.25
2024-02-06T03:09:19.374Z,50.88
2024-02-06T03:11:49.285Z,43.38
2024-02-06T03:14:19.147Z,52.20
2024-02-06T03:16:49.655Z,47.10
2024-02-06T03:19:29.022Z,42.80
2024-02-06T03:22:07.322Z,48.00
2024-02-06T03:24:40.274Z,50.40
2024-02-06T03:27:10.966Z,51.67
2024-02-06T03:29:40.920Z,47.05
2024-02-06T03:32:11.779Z,51.00
2024-02-06T03:34:41.767Z,44.47
2024-02-06T03:37:14.768Z,47.65
2024-02-06T03:39:44.712Z,46.03
2024-02-06T03:42:14.627Z,41.92
2024-02-06T03:44:44.563Z,47.08
2024-02-06T03:47:15.577Z,48.85
2024-02-06T03:49:49.586Z,51.15
2024-02-06T03:52:22.343Z,46.28
2024-02-06T03:54:52.711Z,42.33
2024-02-06T03:57:22.691Z,47.08
2024-02-06T03:59:55.300Z,47.83
2024-02-06T04:02:25.320Z,43.20
2024-02-06T04:04:55.510Z,53.22
2024-02-06T04:07:30.559Z,43.03
2024-02-06T04:10:00.616Z,46.05
2024-02-06T04:12:30.567Z,48.67
2024-02-06T04:15:00.559Z,40.35
2024-02-06T04:17:33.408Z,43.30
2024-02-06T04:20:03.295Z,39.08
2024-02-06T04:22:35.955Z,40.38
2024-02-06T04:25:06.276Z,44.00
2024-02-06T04:27:36.315Z,40.03
2024-02-06T04:30:17.439Z,40.67
2024-02-06T04:32:50.321Z,42.03
2024-02-06T04:35:22.278Z,44.63
2024-02-06T04:37:54.985Z,41.67
2024-02-06T04:40:24.999Z,40.25
2024-02-06T04:42:56.716Z,38.50
2024-02-06T04:45:29.465Z,42.35
2024-02-06T04:48:02.051Z,36.67
2024-02-06T04:50:36.470Z,41.55
2024-02-06T04:53:09.079Z,38.45
2024-02-06T04:55:39.116Z,42.10
2024-02-06T04:58:09.718Z,47.00
2024-02-06T05:00:41.104Z,41.88
2024-02-06T05:03:13.858Z,44.60
2024-02-06T05:05:48.599Z,50.08
2024-02-06T05:08:21.163Z,47.13
2024-02-06T05:10:54.331Z,36.10
2024-02-06T05:13:30.578Z,39.50
2024-02-06T05:16:05.893Z,44.97
2024-02-06T05:18:36.098Z,40.30
2024-02-06T05:21:06.385Z,44.35
2024-02-06T05:23:38.954Z,42.92
2024-02-06T05:26:14.192Z,38.70
2024-02-06T05:28:47.170Z,44.05
2024-02-06T05:31:17.861Z,48.97
2024-02-06T05:33:48.830Z,40.08
2024-02-06T05:36:19.090Z,51.05
2024-02-06T05:38:51.616Z,38.90
2024-02-06T05:41:21.609Z,43.95
2024-02-06T05:43:51.670Z,43.83
2024-02-06T05:46:21.974Z,45.45
2024-02-06T05:48:53.147Z,38.03
2024-02-06T05:51:24.326Z,50.25
2024-02-06T05:53:58.424Z,40.80
2024-02-06T05:56:35.113Z,41.20
2024-02-06T05:59:06.234Z,40.95
2024-02-06T06:01:40.892Z,37.17
2024-02-06T06:04:19.590Z,39.70
2024-02-06T06:06:57.314Z,43.33
2024-02-06T06:09:30.302Z,41.63
2024-02-06T06:12:00.216Z,37.60
2024-02-06T06:14:30.126Z,39.05
2024-02-06T06:17:02.850Z,41.50
2024-02-06T06:19:35.607Z,34.67
2024-02-06T06:22:08.904Z,39.45
2024-02-06T06:24:41.592Z,37.97
2024-02-06T06:27:11.539Z,36.40
2024-02-06T06:29:41.533Z,41.03
2024-02-06T06:32:11.461Z,34.45
2024-02-06T06:34:47.153Z,37.90
2024-02-06T06:37:20.437Z,40.63
2024-02-06T06:39:55.385Z,39.90
2024-02-06T06:42:25.499Z,37.72
2024-02-06T06:44:55.450Z,45.25
2024-02-06T06:47:25.434Z,33.95
2024-02-06T06:50:04.318Z,38.80
2024-02-06T06:52:34.518Z,37.80
2024-02-06T06:55:14.157Z,40.17
2024-02-06T06:57:46.486Z,35.92
2024-02-06T07:00:18.111Z,37.05
2024-02-06T07:02:48.485Z,32.67
2024-02-06T07:05:18.488Z,37.63
2024-02-06T07:07:48.468Z,30.20
2024-02-06T07:10:21.184Z,30.33
2024-02-06T07:12:55.310Z,36.38
2024-02-06T07:15:30.531Z,38.08
2024-02-06T07:18:03.722Z,31.80
2024-02-06T07:20:38.024Z,37.40
2024-02-06T07:23:08.652Z,32.40
2024-02-06T07:25:44.407Z,35.13
2024-02-06T07:28:17.083Z,33.50
2024-02-06T07:30:52.751Z,30.35
2024-02-06T07:33:23.481Z,36.75
2024-02-06T07:35:59.653Z,28.00
2024-02-06T07:38:29.652Z,37.10
2024-02-06T07:41:05.039Z,27.95
2024-02-06T07:43:38.912Z,46.13
2024-02-06T07:46:29.729Z,31.23
2024-02-06T07:49:00.237Z,33.80
2024-02-06T07:51:35.923Z,33.90
2024-02-06T07:54:05.907Z,25.25
2024-02-06T07:56:41.523Z,28.80
2024-02-06T07:59:19.995Z,27.60
2024-02-06T08:01:50.241Z,29.20
2024-02-06T08:04:17.735Z,32.08
2024-02-06T08:06:47.739Z,31.80
2024-02-06T08:09:19.681Z,31.83
2024-02-06T08:11:52.239Z,27.52
2024-02-06T08:14:22.830Z,24.40
2024-02-06T08:17:06.667Z,26.75
2024-02-06T08:19:42.855Z,28.95
2024-02-06T08:22:12.980Z,24.25
2024-02-06T08:24:43.069Z,27.73
2024-02-06T08:27:15.754Z,25.95
2024-02-06T08:29:46.896Z,35.03
2024-02-06T08:32:17.117Z,32.25
2024-02-06T08:34:47.213Z,30.55
2024-02-06T08:37:17.425Z,33.53
2024-02-06T08:39:48.020Z,28.00
2024-02-06T08:42:20.705Z,28.05
2024-02-06T08:44:50.668Z,30.40
2024-02-06T08:47:20.573Z,27.20
2024-02-06T08:49:50.604Z,29.20
2024-02-06T08:52:21.069Z,32.70
2024-02-06T08:54:51.028Z,34.42
2024-02-06T08:57:23.584Z,28.20
2024-02-06T08:59:53.561Z,21.63
2024-02-06T09:02:26.464Z,22.67
2024-02-06T09:04:57.414Z,21.03
2024-02-06T09:07:27.958Z,28.33
2024-02-06T09:10:01.333Z,21.40
2024-02-06T09:12:40.257Z,23.38
2024-02-06T09:15:11.177Z,32.90
2024-02-06T09:17:41.341Z,19.33
2024-02-06T09:20:14.318Z,21.08
2024-02-06T09:22:44.641Z,31.02
2024-02-06T09:25:15.199Z,19.52
2024-02-06T09:27:52.194Z,19.05
2024-02-06T09:30:22.702Z,31.40
2024-02-06T09:32:52.727Z,24.20
2024-02-06T09:35:22.934Z,23.52
2024-02-06T09:37:59.072Z,20.35
2024-02-06T09:40:29.097Z,35.55
2024-02-06T09:43:09.506Z,21.25
2024-02-06T09:45:40.330Z,22.60
2024-02-06T09:48:11.695Z,28.50
2024-02-06T09:50:41.735Z,22.95
2024-02-06T09:53:13.370Z,23.10
2024-02-06T09:55:45.435Z,17.65
2024-02-06T09:58:19.581Z,26.35
2024-02-06T10:00:51.276Z,23.92
2024-02-06T10:03:27.071Z,37.85
2024-02-06T10:06:02.219Z,28.30
2024-02-06T10:08:35.383Z,31.55
2024-02-06T10:11:10.136Z,22.75
2024-02-06T10:13:43.220Z,18.88
2024-02-06T10:16:23.233Z,17.65
2024-02-06T10:18:59.574Z,27.77
2024-02-06T10:21:30.396Z,17.83
2024-02-06T10:24:07.547Z,20.15
2024-02-06T10:26:40.912Z,24.63
2024-02-06T10:29:25.976Z,26.90
2024-02-06T10:32:00.006Z,24.10
2024-02-06T10:34:33.258Z,19.00
2024-02-06T10:37:12.313Z,21.73
2024-02-06T10:39:45.305Z,14.57
2024-02-06T10:42:52.816Z,17.10
2024-02-06T10:45:22.039Z,20.05
2024-02-06T10:48:00.629Z,20.90
2024-02-06T10:50:31.142Z,19.48
2024-02-06T10:53:04.260Z,14.18
2024-02-06T10:55:43.332Z,17.65
2024-02-06T10:58:20.085Z,16.35
2024-02-06T11:00:54.383Z,20.27
2024-02-06T11:03:28.624Z,18.33
2024-02-06T11:06:01.331Z,17.70
2024-02-06T11:08:34.888Z,16.63
2024-02-06T11:11:06.648Z,17.33
2024-02-06T11:13:41.228Z,16.98
2024-02-06T11:16:16.604Z,20.02
2024-02-06T11:19:04.133Z,15.10
2024-02-06T11:21:39.246Z,14.10
2024-02-06T11:24:13.389Z,19.02
2024-02-06T11:26:44.866Z,15.68
2024-02-06T11:29:14.978Z,14.55
2024-02-06T11:31:47.787Z,14.68
2024-02-06T11:34:21.134Z,15.30
2024-02-06T11:36:52.040Z,13.50
2024-02-06T11:39:26.412Z,13.63
2024-02-06T11:41:56.658Z,26.02
2024-02-06T11:44:27.916Z,17.48
2024-02-06T11:47:01.118Z,15.02
2024-02-06T11:49:32.516Z,14.63
2024-02-06T11:52:03.150Z,25.48
2024-02-06T11:54:33.512Z,17.60
2024-02-06T12:00:06.116Z,19.73
2024-02-06T12:02:48.413Z,16.80
2024-02-06T12:05:18.412Z,14.52
2024-02-06T12:07:56.143Z,16.20
2024-02-06T12:10:31.060Z,18.98
2024-02-06T12:13:05.941Z,15.25
2024-02-06T12:15:44.873Z,15.43
2024-02-06T12:18:19.797Z,14.20
2024-02-06T12:20:53.123Z,11.52
2024-02-06T12:23:23.538Z,16.50
2024-02-06T12:25:55.801Z,12.48
2024-02-06T12:28:25.855Z,16.92
2024-02-06T12:31:04.535Z,19.90
2024-02-06T12:33:41.509Z,10.45
2024-02-06T12:36:12.386Z,11.98
2024-02-06T12:38:42.446Z,22.13
2024-02-06T12:41:12.856Z,11.93
2024-02-06T12:43:42.886Z,15.50
2024-02-06T12:46:13.137Z,20.00
2024-02-06T12:48:46.014Z,14.02
2024-02-06T12:51:17.653Z,10.63
2024-02-06T12:53:47.911Z,22.55
2024-02-06T12:56:24.543Z,18.23
2024-02-06T13:01:44.498Z,22.33
2024-02-06T13:04:33.895Z,13.50
2024-02-06T13:07:06.458Z,12.93
2024-02-06T13:09:37.908Z,13.73
2024-02-06T13:12:09.135Z,20.63
2024-02-06T13:14:39.265Z,13.25
2024-02-06T13:17:13.065Z,12.93
2024-02-06T13:19:45.895Z,14.68
2024-02-06T13:22:26.942Z,9.97
2024-02-06T13:24:56.908Z,19.50
2024-02-06T13:27:26.916Z,11.95
2024-02-06T13:29:56.922Z,17.15
2024-02-06T13:32:27.018Z,12.18
2024-02-06T13:34:59.756Z,11.52
2024-02-06T13:37:31.315Z,16.80
2024-02-06T13:40:02.412Z,15.02
2024-02-06T13:42:35.396Z,14.48
2024-02-06T13:45:06.333Z,16.58
2024-02-06T13:47:37.959Z,14.27
2024-02-06T13:50:14.544Z,12.90
2024-02-06T13:52:44.693Z,15.88
2024-02-06T13:55:15.270Z,13.80
2024-02-06T13:57:51.832Z,12.55
2024-02-06T14:00:23.284Z,12.57
2024-02-06T14:02:54.206Z,10.15
2024-02-06T14:05:35.002Z,14.63
2024-02-06T14:08:12.262Z,12.45
2024-02-06T14:10:42.929Z,17.27
2024-02-06T14:13:14.937Z,15.65
2024-02-06T14:15:46.957Z,18.15
2024-02-06T14:18:26.780Z,15.05
2024-02-06T14:21:00.808Z,18.35
2024-02-06T14:23:30.928Z,18.63
2024-02-06T14:26:01.027Z,17.48
2024-02-06T14:28:31.109Z,21.83
2024-02-06T14:31:01.962Z,17.30
2024-02-06T14:33:34.181Z,13.35
2024-02-06T14:36:07.179Z,15.77
2024-02-06T14:38:39.866Z,21.02
2024-02-06T14:41:09.968Z,19.93
2024-02-06T14:43:39.984Z,22.20
2024-02-06T14:46:10.257Z,23.70
2024-02-06T14:48:40.909Z,24.98
2024-02-06T14:51:13.458Z,15.50
2024-02-06T14:53:43.553Z,23.67
2024-02-06T14:56:13.526Z,16.85
2024-02-06T14:58:44.408Z,18.70
2024-02-06T15:01:14.956Z,12.57
2024-02-06T15:03:44.940Z,15.68
2024-02-06T15:06:17.608Z,15.95
2024-02-06T15:08:48.197Z,25.70
2024-02-06T15:11:20.196Z,19.13
2024-02-06T15:13:51.914Z,23.85
2024-02-06T15:16:22.141Z,27.33
2024-02-06T15:18:52.911Z,15.88
2024-02-06T15:21:32.297Z,22.88
2024-02-06T15:24:07.341Z,20.67
2024-02-06T15:26:41.705Z,22.08
2024-02-06T15:29:13.001Z,26.67
2024-02-06T15:31:53.882Z,22.75
2024-02-06T15:34:45.845Z,21.08
2024-02-06T15:37:25.400Z,18.48
2024-02-06T15:39:56.184Z,20.75
2024-02-06T15:42:29.194Z,18.60
2024-02-06T15:45:02.373Z,20.85
2024-02-06T15:47:33.678Z,18.83
2024-02-06T15:50:06.062Z,18.58
2024-02-06T15:52:38.880Z,24.20
2024-02-06T15:55:10.509Z,17.45
2024-02-06T15:57:43.694Z,17.55
2024-02-06T16:00:15.797Z,17.50
2024-02-06T16:03:04.599Z,30.45
2024-02-06T16:05:34.501Z,24.73
2024-02-06T16:08:07.517Z,23.73
2024-02-06T16:10:40.306Z,21.92
2024-02-06T16:13:19.329Z,19.45
2024-02-06T16:15:53.604Z,16.58
2024-02-06T16:18:34.201Z,22.45
2024-02-06T16:21:07.332Z,16.33
2024-02-06T16:23:42.828Z,26.88
2024-02-06T16:26:17.480Z,31.10
2024-02-06T16:28:54.326Z,22.90
2024-02-06T16:31:27.633Z,26.33
2024-02-06T16:34:02.799Z,23.35
2024-02-06T16:36:41.916Z,22.58
2024-02-06T16:39:19.534Z,19.85
2024-02-06T16:42:00.124Z,28.60
2024-02-06T16:44:32.564Z,35.78
2024-02-06T16:47:03.167Z,26.33
2024-02-06T16:49:36.334Z,29.15
2024-02-06T16:52:09.400Z,24.95
2024-02-06T16:54:54.237Z,22.15
2024-02-06T16:57:39.534Z,30.48
2024-02-06T17:00:16.271Z,23.23
2024-02-06T17:02:51.997Z,21.50
2024-02-06T17:05:24.882Z,29.00
2024-02-06T17:08:09.244Z,23.52
2024-02-06T17:10:41.999Z,24.17
2024-02-06T17:13:11.941Z,20.27
2024-02-06T17:15:57.348Z,22.45
2024-02-06T17:18:34.029Z,18.63
2024-02-06T17:21:04.066Z,28.10
2024-02-06T17:23:41.477Z,27.10
2024-02-06T17:26:26.286Z,20.40
2024-02-06T17:28:56.279Z,16.95
2024-02-06T17:31:49.583Z,20.10
2024-02-06T17:34:19.695Z,25.80
2024-02-06T17:36:49.650Z,22.98
2024-02-06T17:39:20.491Z,27.63
2024-02-06T17:41:53.058Z,21.35
2024-02-06T17:44:24.948Z,22.20
2024-02-06T17:46:54.926Z,22.98
2024-02-06T17:49:25.166Z,24.17
2024-02-06T17:51:57.971Z,22.05
2024-02-06T17:54:28.703Z,21.30
2024-02-06T17:57:03.281Z,17.70
2024-02-06T17:59:33.162Z,16.85
2024-02-06T18:02:03.103Z,25.05
2024-02-06T18:04:33.322Z,24.83
2024-02-06T18:07:03.429Z,19.95
2024-02-06T18:09:33.513Z,21.40
2024-02-06T18:12:07.091Z,22.05
2024-02-06T18:14:38.453Z,25.50
2024-02-06T18:17:26.517Z,23.33
2024-02-06T18:20:06.190Z,22.35
2024-02-06T18:22:46.557Z,30.45
2024-02-06T18:25:18.884Z,31.70
2024-02-06T18:27:55.090Z,22.05
2024-02-06T18:30:31.925Z,25.88
2024-02-06T18:33:13.286Z,26.25
2024-02-06T18:35:45.184Z,27.15
2024-02-06T18:38:16.894Z,25.98
2024-02-06T18:41:00.309Z,19.52
2024-02-06T18:43:40.767Z,22.13
2024-02-06T18:46:17.202Z,21.83
2024-02-06T18:48:48.754Z,26.02
2024-02-06T18:51:23.061Z,15.43
2024-02-06T18:53:58.410Z,20.05
2024-02-06T18:56:29.708Z,18.30
2024-02-06T18:59:07.159Z,21.58
2024-02-06T19:04:32.719Z,17.40
2024-02-06T19:07:07.979Z,25.42
2024-02-06T19:09:51.792Z,17.33
2024-02-06T19:12:21.886Z,20.73
2024-02-06T19:15:08.637Z,17.55
2024-02-06T19:17:40.147Z,19.73
2024-02-06T19:20:14.135Z,22.55
2024-02-06T19:22:45.431Z,20.80
2024-02-06T19:25:18.324Z,20.80
2024-02-06T19:27:52.500Z,22.25
2024-02-06T19:30:31.583Z,14.82
2024-02-06T19:33:12.299Z,19.42
2024-02-06T19:35:45.825Z,14.23
2024-02-06T19:38:18.551Z,16.52
2024-02-06T19:40:49.527Z,15.85
2024-02-06T19:43:23.323Z,20.98
2024-02-06T19:45:56.616Z,14.20
2024-02-06T19:48:26.859Z,20.73
2024-02-06T19:50:57.944Z,14.77
2024-02-06T19:53:32.226Z,15.88
2024-02-06T19:56:02.986Z,16.15
2024-02-06T19:58:34.114Z,15.55
2024-02-06T20:01:16.456Z,13.50
2024-02-06T20:03:46.338Z,23.17
2024-02-06T20:06:27.986Z,23.25
2024-02-06T20:09:07.477Z,22.23
2024-02-06T20:11:37.918Z,17.40
2024-02-06T20:14:07.837Z,30.20
2024-02-06T20:16:47.736Z,23.65
2024-02-06T20:19:18.078Z,18.67
2024-02-06T20:21:48.164Z,11.85
2024-02-06T20:24:18.314Z,18.65
2024-02-06T20:26:49.496Z,19.38
2024-02-06T20:29:19.961Z,21.80
2024-02-06T20:31:52.665Z,15.25
2024-02-06T20:34:22.945Z,27.98
2024-02-06T20:36:53.023Z,13.35
2024-02-06T20:39:25.104Z,27.40
2024-02-06T20:44:42.134Z,32.95
2024-02-06T20:47:16.330Z,35.45
2024-02-06T20:49:46.553Z,38.53
2024-02-06T20:52:16.737Z,30.40
2024-02-06T20:54:48.252Z,25.10
2024-02-06T20:57:18.446Z,26.15
2024-02-06T20:59:50.884Z,35.47
2024-02-06T21:02:27.676Z,15.00
2024-02-06T21:04:58.973Z,23.15
2024-02-06T21:07:40.804Z,27.77
2024-02-06T21:10:12.458Z,15.75
2024-02-06T21:12:42.952Z,11.75
2024-02-06T21:15:14.227Z,11.65
2024-02-06T21:17:58.914Z,13.38
2024-02-06T21:20:30.449Z,12.70
2024-02-06T21:23:08.429Z,17.77
2024-02-06T21:25:39.861Z,12.15
2024-02-06T21:28:09.927Z,22.42
2024-02-06T21:30:40.475Z,23.85
2024-02-06T21:33:15.827Z,20.55
2024-02-06T21:35:45.798Z,27.10
2024-02-06T21:38:18.415Z,20.08
2024-02-06T21:40:49.587Z,16.97
2024-02-06T21:43:19.684Z,20.48
2024-02-06T21:45:58.565Z,16.75
2024-02-06T21:48:31.311Z,21.02
2024-02-06T21:51:01.507Z,19.58
2024-02-06T21:53:31.453Z,21.70
2024-02-06T21:56:09.039Z,15.75
2024-02-06T21:58:46.372Z,17.50
2024-02-06T22:01:23.194Z,13.27
2024-02-06T22:03:55.990Z,14.30
2024-02-06T22:06:26.162Z,8.40
2024-02-06T22:08:56.056Z,13.07
2024-02-06T22:11:32.071Z,19.88
2024-02-06T22:14:02.043Z,10.55
2024-02-06T22:16:32.455Z,15.13
2024-02-06T22:19:05.080Z,9.70
2024-02-06T22:21:35.306Z,15.38
2024-02-06T22:24:05.439Z,17.52
2024-02-06T22:26:35.448Z,17.98
2024-02-06T22:29:07.483Z,11.05
2024-02-06T22:31:37.354Z,15.50
2024-02-06T22:34:11.460Z,15.75
2024-02-06T22:36:44.748Z,16.00
2024-02-06T22:39:16.316Z,16.60
2024-02-06T22:41:51.571Z,15.05
2024-02-06T22:44:22.007Z,20.58
2024-02-06T22:46:53.139Z,19.25
2024-02-06T22:49:25.788Z,21.70
2024-02-06T22:51:55.818Z,22.90
2024-02-06T22:54:25.734Z,25.38
2024-02-06T22:56:55.957Z,22.25
2024-02-06T22:59:26.221Z,18.30
2024-02-06T23:01:56.227Z,20.65
2024-02-06T23:04:29.026Z,22.42
2024-02-06T23:06:59.110Z,23.33
2024-02-06T23:09:30.690Z,19.15
2024-02-06T23:12:00.638Z,27.98
2024-02-06T23:14:31.195Z,17.60
2024-02-06T23:17:01.493Z,24.63
2024-02-06T23:22:10.565Z,24.10
2024-02-06T23:24:40.446Z,21.60
2024-02-06T23:27:10.325Z,26.20
2024-02-06T23:29:40.330Z,21.15
2024-02-06T23:32:10.579Z,21.52
2024-02-06T23:34:43.746Z,16.77
2024-02-06T23:37:13.834Z,19.63
2024-02-06T23:39:44.714Z,16.10
2024-02-06T23:42:14.748Z,19.60
2024-02-06T23:44:44.701Z,12.68
2024-02-06T23:47:14.672Z,17.98
2024-02-06T23:49:47.391Z,23.98
2024-02-06T23:52:17.418Z,15.73
2024-02-06T23:54:47.423Z,23.50
2024-02-06T23:57:17.385Z,19.08
2024-02-06T23:59:49.005Z,17.23
